createdAt,value
2019-04-16T00:01:14.996Z,8.97
2019-04-16T00:03:54.038Z,9.73
2019-04-16T00:06:36.401Z,11.70
2019-04-16T00:09:15.819Z,10.43
2019-04-16T00:11:55.229Z,11.27
2019-04-16T00:14:31.428Z,10.03
2019-04-16T00:17:04.745Z,10.47
2019-04-16T00:19:37.819Z,10.33
2019-04-16T00:22:35.072Z,11.13
2019-04-16T00:25:08.280Z,11.93
2019-04-16T00:27:41.103Z,12.03
2019-04-16T00:30:16.523Z,13.10
2019-04-16T00:32:49.302Z,10.37
2019-04-16T00:35:21.807Z,11.93
2019-04-16T00:37:54.599Z,14.07
2019-04-16T00:40:27.644Z,11.97
2019-04-16T00:43:00.738Z,12.10
2019-04-16T00:45:33.457Z,11.67
2019-04-16T00:48:06.363Z,12.83
2019-04-16T00:50:39.157Z,12.17
2019-04-16T00:53:11.852Z,12.50
2019-04-16T00:55:45.177Z,10.30
2019-04-16T00:58:19.691Z,11.57
2019-04-16T01:00:53.443Z,11.60
2019-04-16T01:03:26.178Z,13.50
2019-04-16T01:05:59.009Z,13.40
2019-04-16T01:08:32.020Z,13.17
2019-04-16T01:11:04.984Z,15.80
2019-04-16T01:13:37.897Z,12.50
2019-04-16T01:16:11.150Z,11.30
2019-04-16T01:18:44.108Z,12.93
2019-04-16T01:21:16.710Z,12.43
2019-04-16T01:23:49.653Z,13.97
2019-04-16T01:26:24.278Z,11.63
2019-04-16T01:29:05.286Z,13.00
2019-04-16T01:35:20.948Z,12.90
2019-04-16T01:38:27.637Z,15.87
2019-04-16T01:41:06.036Z,12.07
2019-04-16T01:43:42.671Z,11.07
2019-04-16T01:46:23.646Z,11.90
2019-04-16T01:49:04.486Z,13.40
2019-04-16T01:51:44.621Z,11.77
2019-04-16T01:54:23.660Z,10.20
2019-04-16T01:57:00.509Z,11.57
2019-04-16T01:59:48.868Z,13.17
2019-04-16T02:02:29.527Z,11.93
2019-04-16T02:05:07.377Z,12.33
2019-04-16T02:07:46.494Z,13.40
2019-04-16T02:10:25.788Z,13.17
2019-04-16T02:13:05.702Z,14.37
2019-04-16T02:15:43.177Z,15.53
2019-04-16T02:18:20.532Z,15.93
2019-04-16T02:20:57.842Z,13.20
2019-04-16T02:23:38.189Z,13.33
2019-04-16T02:26:17.169Z,16.17
2019-04-16T02:28:56.539Z,15.37
2019-04-16T02:31:37.687Z,14.97
2019-04-16T02:34:17.274Z,15.27
2019-04-16T02:36:52.046Z,13.53
2019-04-16T02:39:46.981Z,13.23
2019-04-16T02:42:13.837Z,15.17
2019-04-16T02:44:51.069Z,14.23
2019-04-16T02:47:42.390Z,13.60
2019-04-16T02:50:31.937Z,14.07
2019-04-16T02:53:38.346Z,14.67
2019-04-16T02:56:33.469Z,14.13
2019-04-16T02:59:16.891Z,11.47
2019-04-16T03:02:15.850Z,15.97
2019-04-16T03:05:29.074Z,17.13
2019-04-16T03:08:05.012Z,15.97
2019-04-16T03:10:38.383Z,16.57
2019-04-16T03:13:11.464Z,14.50
2019-04-16T03:16:05.889Z,13.93
2019-04-16T03:18:47.363Z,15.83
2019-04-16T03:21:19.674Z,14.33
2019-04-16T03:23:52.625Z,15.37
2019-04-16T03:26:25.578Z,18.60
2019-04-16T03:28:59.444Z,20.90
2019-04-16T03:31:32.423Z,21.67
2019-04-16T03:34:05.446Z,16.47
2019-04-16T03:36:38.797Z,14.90
2019-04-16T03:39:13.676Z,12.97
2019-04-16T03:41:46.263Z,14.43
2019-04-16T03:44:20.158Z,16.50
2019-04-16T03:46:53.070Z,16.13
2019-04-16T03:49:27.831Z,18.47
2019-04-16T03:52:00.542Z,17.63
2019-04-16T03:54:35.377Z,18.90
2019-04-16T03:57:08.256Z,17.33
2019-04-16T03:59:41.642Z,19.93
2019-04-16T04:02:15.528Z,21.87
2019-04-16T04:04:49.628Z,23.57
2019-04-16T04:07:22.568Z,21.03
2019-04-16T04:09:58.657Z,24.63
2019-04-16T04:12:30.532Z,19.73
2019-04-16T04:15:03.525Z,19.37
2019-04-16T04:17:38.736Z,24.17
2019-04-16T04:20:14.859Z,43.23
2019-04-16T04:22:47.331Z,44.77
2019-04-16T04:25:20.602Z,38.20
2019-04-16T04:27:53.666Z,27.33
2019-04-16T04:30:28.715Z,22.73
2019-04-16T04:33:01.743Z,18.70
2019-04-16T04:35:36.417Z,23.60
2019-04-16T04:38:12.262Z,19.20
2019-04-16T04:40:50.282Z,25.37
2019-04-16T04:43:20.816Z,22.67
2019-04-16T04:45:54.372Z,23.00
2019-04-16T04:48:27.528Z,18.80
2019-04-16T04:51:03.776Z,19.83
2019-04-16T04:53:35.505Z,23.77
2019-04-16T04:56:08.886Z,23.60
2019-04-16T04:58:42.004Z,18.00
2019-04-16T05:01:15.296Z,19.67
2019-04-16T05:04:22.502Z,20.00
2019-04-16T05:06:59.151Z,24.53
2019-04-16T05:09:35.599Z,20.90
2019-04-16T05:12:08.340Z,17.43
2019-04-16T05:14:58.473Z,17.60
2019-04-16T05:17:30.659Z,20.50
2019-04-16T05:20:04.039Z,20.07
2019-04-16T05:22:38.381Z,18.17
2019-04-16T05:25:11.643Z,19.00
2019-04-16T05:27:44.463Z,18.13
2019-04-16T05:30:20.856Z,16.90
2019-04-16T05:32:52.419Z,18.47
2019-04-16T05:35:25.870Z,16.80
2019-04-16T05:37:59.135Z,23.23
2019-04-16T05:40:35.016Z,20.43
2019-04-16T05:43:06.879Z,23.30
2019-04-16T05:45:40.480Z,22.37
2019-04-16T05:48:13.689Z,26.10
2019-04-16T05:50:46.966Z,20.97
2019-04-16T05:53:20.155Z,17.47
2019-04-16T05:56:12.546Z,20.87
2019-04-16T05:58:45.647Z,21.00
2019-04-16T06:01:42.401Z,22.17
2019-04-16T06:04:15.743Z,20.60
2019-04-16T06:06:49.011Z,19.90
2019-04-16T06:09:21.979Z,21.67
2019-04-16T06:11:55.121Z,22.27
2019-04-16T06:14:34.429Z,20.80
2019-04-16T06:17:25.899Z,21.60
2019-04-16T06:20:24.057Z,16.13
2019-04-16T06:23:25.141Z,19.40
2019-04-16T06:26:06.255Z,21.50
2019-04-16T06:28:56.352Z,19.10
2019-04-16T06:31:44.643Z,18.80
2019-04-16T06:35:04.904Z,21.83
2019-04-16T06:38:08.840Z,19.13
2019-04-16T06:40:45.241Z,17.77
2019-04-16T06:43:27.394Z,19.83
2019-04-16T06:46:19.585Z,22.20
2019-04-16T06:49:14.303Z,21.30
2019-04-16T06:52:15.811Z,15.83
2019-04-16T06:54:56.729Z,22.07
2019-04-16T06:57:42.948Z,25.23
2019-04-16T07:00:35.279Z,21.97
2019-04-16T07:03:32.420Z,20.60
2019-04-16T07:06:22.379Z,19.30
2019-04-16T07:09:14.316Z,23.07
2019-04-16T07:11:54.504Z,18.73
2019-04-16T07:14:23.888Z,16.87
2019-04-16T07:16:59.740Z,17.80
2019-04-16T07:19:31.884Z,22.60
2019-04-16T07:22:05.155Z,16.87
2019-04-16T07:24:38.574Z,14.70
2019-04-16T07:27:12.132Z,14.87
2019-04-16T07:30:06.900Z,16.63
2019-04-16T07:32:56.078Z,18.73
2019-04-16T07:35:38.789Z,16.97
2019-04-16T07:38:46.145Z,14.47
2019-04-16T07:41:34.034Z,14.57
2019-04-16T07:44:12.302Z,16.23
2019-04-16T07:47:07.653Z,13.80
2019-04-16T16:01:05.987Z,12.90
2019-04-16T16:04:08.051Z,25.30
2019-04-16T16:06:52.169Z,22.80
2019-04-16T16:09:29.874Z,17.27
2019-04-16T16:12:11.467Z,16.90
2019-04-16T16:14:45.037Z,12.07
2019-04-16T16:17:19.489Z,12.27
2019-04-16T16:19:53.495Z,11.53
2019-04-16T16:22:27.227Z,11.03
2019-04-16T16:25:00.781Z,9.67
2019-04-16T16:27:34.459Z,9.50
2019-04-16T16:30:08.415Z,9.60
2019-04-16T16:32:42.093Z,9.80
2019-04-16T16:35:17.799Z,10.67
2019-04-16T16:37:51.489Z,14.87
2019-04-16T16:40:25.123Z,11.27
2019-04-16T16:42:58.604Z,13.17
2019-04-16T16:45:46.390Z,13.40
2019-04-16T16:48:21.914Z,10.37
2019-04-16T16:50:55.276Z,10.87
2019-04-16T16:53:44.895Z,11.93
2019-04-16T16:56:25.347Z,11.53
2019-04-16T16:59:16.893Z,10.50
2019-04-16T17:02:08.613Z,8.63
2019-04-16T17:04:43.837Z,7.77
2019-04-16T17:07:18.085Z,8.73
2019-04-16T17:09:51.260Z,10.50
2019-04-16T17:12:24.663Z,12.30
2019-04-16T17:14:57.695Z,14.57
2019-04-16T17:17:31.120Z,15.10
2019-04-16T17:20:06.239Z,18.83
2019-04-16T17:22:40.981Z,15.50
2019-04-16T17:25:14.544Z,16.10
2019-04-16T17:27:51.927Z,12.37
2019-04-16T17:30:24.803Z,14.00
2019-04-16T17:32:58.478Z,18.00
2019-04-16T17:35:35.942Z,15.67
2019-04-16T17:38:08.409Z,13.87
2019-04-16T17:41:01.874Z,12.67
2019-04-16T17:44:01.929Z,14.80
2019-04-16T17:46:56.913Z,10.93
2019-04-16T17:50:02.525Z,13.10
2019-04-16T17:52:45.504Z,15.23
2019-04-16T17:55:43.534Z,16.27
2019-04-16T17:58:24.209Z,16.33
2019-04-16T18:01:29.886Z,18.27
2019-04-16T18:04:30.747Z,17.47
2019-04-16T18:07:25.883Z,15.20
2019-04-16T18:10:11.375Z,19.07
2019-04-16T18:12:59.082Z,13.80
2019-04-16T18:15:50.937Z,14.67
2019-04-16T18:18:36.469Z,12.83
2019-04-16T18:21:35.175Z,14.87
2019-04-16T18:24:39.550Z,12.97
2019-04-16T18:27:32.934Z,12.70
2019-04-16T18:30:39.191Z,13.70
2019-04-16T18:33:45.322Z,15.10
2019-04-16T18:36:36.418Z,16.57
2019-04-16T18:39:37.099Z,9.40
2019-04-16T18:42:38.709Z,9.57
2019-04-16T18:45:36.963Z,11.57
2019-04-16T18:48:20.304Z,10.70
2019-04-16T18:50:59.962Z,11.80
2019-04-16T18:53:31.489Z,13.47
2019-04-16T18:56:04.581Z,13.33
2019-04-16T18:58:41.555Z,15.97
2019-04-16T19:01:17.448Z,14.70
2019-04-16T19:03:51.367Z,11.37
2019-04-16T19:06:24.860Z,11.43
2019-04-16T19:08:58.621Z,10.07
2019-04-16T19:11:34.820Z,13.17
2019-04-16T19:14:14.037Z,12.13
2019-04-16T19:16:47.454Z,13.17
2019-04-16T19:19:22.238Z,11.27
2019-04-16T19:21:56.248Z,12.07
2019-04-16T19:24:30.356Z,11.23
2019-04-16T19:27:04.320Z,9.70
2019-04-16T19:29:42.833Z,9.47
2019-04-16T19:32:15.822Z,10.70
2019-04-16T19:34:50.013Z,9.57
2019-04-16T19:37:23.591Z,15.93
2019-04-16T19:39:56.926Z,10.93
2019-04-16T19:42:33.222Z,10.77
2019-04-16T19:45:08.634Z,9.50
2019-04-16T19:47:42.325Z,11.67
2019-04-16T19:50:18.051Z,15.13
2019-04-16T19:52:53.073Z,17.70
2019-04-16T19:55:26.599Z,17.60
2019-04-16T19:58:00.331Z,20.77
2019-04-16T20:00:34.447Z,16.17
2019-04-16T20:03:08.304Z,21.70
2019-04-16T20:05:42.252Z,18.17
2019-04-16T20:08:16.210Z,20.00
2019-04-16T20:10:49.703Z,29.80
2019-04-16T20:13:28.991Z,46.97
2019-04-16T20:16:03.012Z,30.43
2019-04-16T20:18:50.289Z,23.73
2019-04-16T20:21:16.381Z,14.83
2019-04-16T20:23:50.094Z,11.87
2019-04-16T20:26:25.581Z,11.57
2019-04-16T20:28:59.332Z,10.87
2019-04-16T20:31:36.932Z,10.50
2019-04-16T20:34:12.419Z,8.80
2019-04-16T20:36:45.286Z,10.30
2019-04-16T20:39:18.720Z,10.73
2019-04-16T20:41:53.114Z,10.10
2019-04-16T20:44:27.690Z,10.67
2019-04-16T20:47:03.348Z,11.30
2019-04-16T20:49:35.492Z,11.00
2019-04-16T20:52:08.757Z,11.70
2019-04-16T20:54:45.603Z,10.00
2019-04-16T20:57:18.747Z,9.47
2019-04-16T20:59:53.771Z,10.03
2019-04-16T21:02:29.451Z,13.17
2019-04-16T21:05:04.500Z,11.70
2019-04-16T21:07:37.835Z,12.07
2019-04-16T21:10:11.211Z,14.63
2019-04-16T21:12:45.379Z,13.83
2019-04-16T21:15:19.111Z,12.90
2019-04-16T21:17:52.253Z,14.07
2019-04-16T21:20:25.103Z,13.67
2019-04-16T21:23:01.567Z,13.20
2019-04-16T21:25:33.500Z,15.00
2019-04-16T21:28:23.884Z,14.40
2019-04-16T21:31:01.092Z,14.10
2019-04-16T21:33:40.023Z,12.30
2019-04-16T21:36:19.159Z,12.23
2019-04-16T21:39:09.672Z,14.10
2019-04-16T21:41:42.571Z,13.50
2019-04-16T21:44:15.683Z,13.77
2019-04-16T21:46:52.017Z,8.80
2019-04-16T21:49:37.857Z,9.10
2019-04-16T21:52:08.009Z,9.17
2019-04-16T21:54:41.429Z,9.93
2019-04-16T21:57:14.936Z,9.50
2019-04-16T21:59:50.270Z,9.70
2019-04-16T22:02:30.149Z,11.93
2019-04-16T22:05:02.981Z,11.10
2019-04-16T22:07:36.057Z,8.73
2019-04-16T22:10:09.436Z,11.37
2019-04-16T22:12:44.805Z,10.43
2019-04-16T22:15:17.255Z,9.47
2019-04-16T22:17:50.015Z,10.57
2019-04-16T22:20:22.927Z,10.97
2019-04-16T22:22:55.806Z,10.27
2019-04-16T22:25:28.773Z,11.27
2019-04-16T22:28:01.680Z,9.43
2019-04-16T22:30:34.941Z,9.90
2019-04-16T22:33:07.715Z,9.80
2019-04-16T22:35:40.785Z,10.77
2019-04-16T22:38:14.472Z,10.67
2019-04-16T22:41:04.731Z,11.37
2019-04-16T22:44:06.286Z,11.73
2019-04-16T22:46:51.146Z,13.37
2019-04-16T22:49:24.157Z,11.13
2019-04-16T22:51:57.071Z,11.23
2019-04-16T22:54:29.873Z,12.00
2019-04-16T22:57:11.112Z,12.17
2019-04-16T22:59:44.281Z,12.37
2019-04-16T23:02:28.987Z,12.13
2019-04-16T23:05:01.724Z,12.10
2019-04-16T23:07:36.583Z,13.10
2019-04-16T23:10:09.963Z,14.27
2019-04-16T23:12:42.933Z,10.93
2019-04-16T23:15:16.015Z,13.10
2019-04-16T23:17:48.868Z,12.80
2019-04-16T23:20:29.687Z,14.83
2019-04-16T23:22:58.245Z,14.33
2019-04-16T23:25:31.347Z,14.47
2019-04-16T23:28:09.451Z,12.37
2019-04-16T23:30:40.179Z,13.53
2019-04-16T23:33:13.087Z,13.97
2019-04-16T23:35:46.215Z,10.70
2019-04-16T23:38:19.287Z,11.07
2019-04-16T23:40:52.483Z,10.83
2019-04-16T23:43:53.520Z,10.23
2019-04-16T23:46:53.309Z,9.33
2019-04-16T23:49:52.504Z,9.70
2019-04-16T23:52:50.683Z,12.30
2019-04-16T23:55:48.986Z,11.17
2019-04-16T23:58:34.389Z,11.83
